Time;durP1;ratioP1;P1;durP2;ratioP2;P2;SDS_P1;SDS_P2;PMS_P1;PMS_P2;Temp;Humidity;BMP_temperature;BMP_pressure;BME280_temperature;BME280_humidity;BME280_pressure;Samples;Min_cycle;Max_cycle;Signal;HPM_P1;HPM_P2
2023/05/15 00:00:05;;;;;;;6.85;6.35;;;;;;;10.72;93.53;94897.72;5079850;28;20220;-69
2023/05/15 00:02:33;;;;;;;7.03;6.40;;;;;;;10.71;93.32;94900.84;5078947;28;20250;-69
2023/05/15 00:05:01;;;;;;;6.95;6.45;;;;;;;10.68;93.35;94898.81;5080526;28;20193;-69
2023/05/15 00:07:30;;;;;;;6.82;6.22;;;;;;;10.66;93.55;94884.56;5079855;28;20197;-69
2023/05/15 00:09:58;;;;;;;6.80;6.30;;;;;;;10.66;93.89;94887.31;5079864;28;20177;-69
2023/05/15 00:12:27;;;;;;;6.78;6.18;;;;;;;10.66;93.29;94901.91;5078955;28;20262;-69
2023/05/15 00:14:54;;;;;;;6.90;6.32;;;;;;;10.69;93.27;94914.19;5078769;28;20247;-68
2023/05/15 00:17:25;;;;;;;6.40;5.90;;;;;;;10.69;93.21;94919.72;5078871;28;20185;-69
2023/05/15 00:19:56;;;;;;;6.20;5.57;;;;;;;10.70;93.02;94915.78;5078232;28;20217;-68
2023/05/15 00:22:25;;;;;;;6.93;6.30;;;;;;;10.71;93.06;94923.72;5079003;28;20216;-69
2023/05/15 00:24:54;;;;;;;6.00;5.50;;;;;;;10.72;92.97;94919.00;5079527;28;20211;-69
2023/05/15 00:27:21;;;;;;;6.80;6.22;;;;;;;10.70;92.46;94922.09;5079156;28;20193;-69
2023/05/15 00:29:47;;;;;;;6.60;6.00;;;;;;;10.70;92.95;94924.88;5078947;28;20197;-69
2023/05/15 00:32:20;;;;;;;7.10;6.50;;;;;;;10.68;92.44;94929.94;5078415;28;20193;-69
2023/05/15 00:34:49;;;;;;;6.22;5.82;;;;;;;10.68;92.69;94940.97;5078761;28;20247;-69
2023/05/15 00:37:17;;;;;;;6.32;5.82;;;;;;;10.66;92.43;94923.19;5078908;28;20247;-69
2023/05/15 00:39:45;;;;;;;6.72;6.22;;;;;;;10.60;92.12;94915.19;5077851;28;20224;-69
2023/05/15 00:42:16;;;;;;;5.90;5.40;;;;;;;10.58;91.94;94913.94;5078345;28;20181;-69
2023/05/15 00:44:45;;;;;;;5.95;5.45;;;;;;;10.57;92.04;94920.63;5078806;28;20185;-69
2023/05/15 00:47:16;;;;;;;6.43;5.93;;;;;;;10.57;92.16;94929.69;5079009;28;20196;-69
2023/05/15 00:49:45;;;;;;;6.43;5.82;;;;;;;10.57;92.06;94918.66;5078752;28;20254;-68
2023/05/15 00:52:19;;;;;;;6.15;5.70;;;;;;;10.59;91.91;94918.28;5078741;28;20232;-68
2023/05/15 00:54:48;;;;;;;6.05;5.55;;;;;;;10.55;91.70;94915.44;5078868;28;20185;-69
2023/05/15 00:57:17;;;;;;;6.32;5.80;;;;;;;10.54;91.90;94908.34;5078975;28;20265;-69
2023/05/15 00:59:45;;;;;;;5.78;5.38;;;;;;;10.54;92.00;94915.81;5078081;28;20217;-69
2023/05/15 01:02:16;;;;;;;6.38;5.78;;;;;;;10.55;91.94;94920.97;5078483;28;20230;-69
2023/05/15 01:04:47;;;;;;;5.78;5.38;;;;;;;10.54;92.13;94918.56;5077885;28;20197;-69
2023/05/15 01:07:17;;;;;;;6.97;6.38;;;;;;;10.52;91.92;94913.38;5061655;28;20292;-69
2023/05/15 01:09:48;;;;;;;6.75;6.25;;;;;;;10.51;91.92;94922.03;5078418;28;20181;-69
2023/05/15 01:12:19;;;;;;;7.47;6.95;;;;;;;10.50;91.86;94918.47;5077328;28;20209;-69
2023/05/15 01:14:48;;;;;;;6.88;6.38;;;;;;;10.51;92.19;94899.97;5077059;28;20232;-69
2023/05/15 01:17:16;;;;;;;6.78;6.18;;;;;;;10.48;92.22;94898.72;5077806;28;20193;-69
2023/05/15 01:19:46;;;;;;;6.95;6.45;;;;;;;10.47;92.42;94893.56;5077077;28;20212;-69
2023/05/15 01:22:41;;;;;;;6.82;6.32;;;;;;;10.45;91.96;94893.91;5076705;28;20200;-69
2023/05/15 01:25:35;;;;;;;6.55;5.95;;;;;;;10.40;91.58;94880.41;5075292;28;20286;-69
2023/05/15 01:28:06;;;;;;;6.60;6.10;;;;;;;10.32;91.83;94867.59;5077702;28;20185;-69
2023/05/15 01:30:38;;;;;;;7.22;6.65;;;;;;;10.27;91.93;94876.13;5077264;28;20173;-69
2023/05/15 01:33:11;;;;;;;6.60;6.10;;;;;;;10.30;92.55;94892.75;5078255;28;20293;-69
2023/05/15 01:35:44;;;;;;;6.35;5.93;;;;;;;10.32;92.47;94878.63;5076980;28;20263;-69
2023/05/15 01:38:23;;;;;;;7.60;6.43;;;;;;;10.33;92.50;94874.72;5077794;28;20266;-68
2023/05/15 01:40:59;;;;;;;6.82;6.22;;;;;;;10.33;92.30;94877.47;5076930;28;20648;-68
2023/05/15 01:43:29;;;;;;;6.70;6.10;;;;;;;10.29;92.33;94873.84;5077694;28;20205;-68
2023/05/15 01:46:01;;;;;;;6.20;5.75;;;;;;;10.27;92.31;94876.13;5077926;28;20221;-68
2023/05/15 01:48:30;;;;;;;6.55;6.05;;;;;;;10.26;92.61;94877.28;5076503;28;20292;-68
2023/05/15 01:51:02;;;;;;;7.60;7.00;;;;;;;10.28;92.32;94864.75;5078152;28;20178;-68
2023/05/15 01:53:33;;;;;;;6.60;6.00;;;;;;;10.28;92.37;94866.72;5077759;28;20285;-69
2023/05/15 01:56:03;;;;;;;7.20;6.63;;;;;;;10.29;92.40;94865.56;5077352;28;20268;-68
2023/05/15 01:58:37;;;;;;;7.68;6.97;;;;;;;10.29;92.66;94879.34;5077500;28;20188;-68
2023/05/15 02:01:06;;;;;;;7.40;6.70;;;;;;;10.30;92.90;94880.94;5076838;28;20538;-68
2023/05/15 02:03:34;;;;;;;7.50;6.80;;;;;;;10.30;92.77;94880.94;5076931;28;20213;-69
2023/05/15 02:06:02;;;;;;;8.10;7.30;;;;;;;10.30;92.58;94881.72;5076832;28;20189;-69
2023/05/15 02:08:33;;;;;;;8.75;7.68;;;;;;;10.29;92.53;94885.66;5076206;28;20197;-69
2023/05/15 02:11:01;;;;;;;8.40;7.60;;;;;;;10.27;92.22;94887.16;5076657;28;20264;-69
2023/05/15 02:13:28;;;;;;;8.70;7.80;;;;;;;10.27;92.34;94885.19;5077739;28;20197;-69
2023/05/15 02:15:58;;;;;;;8.50;7.40;;;;;;;10.28;92.25;94870.28;5037367;28;20190;-69
2023/05/15 02:18:27;;;;;;;8.00;7.20;;;;;;;10.30;92.81;94869.91;5035570;28;20218;-69
2023/05/15 02:20:55;;;;;;;7.55;6.80;;;;;;;10.30;92.16;94873.47;5036471;28;20221;-69
2023/05/15 02:23:23;;;;;;;7.10;6.50;;;;;;;10.30;92.27;94878.19;5036922;28;20199;-69
2023/05/15 02:26:06;;;;;;;7.30;6.70;;;;;;;10.29;92.48;94865.56;5036909;28;20186;-69
2023/05/15 02:28:43;;;;;;;7.32;6.63;;;;;;;10.29;92.19;94865.56;5035826;28;20206;-69
2023/05/15 02:31:17;;;;;;;6.78;6.28;;;;;;;10.28;92.55;94852.94;5036211;28;20213;-69
2023/05/15 02:33:51;;;;;;;7.50;6.80;;;;;;;10.21;92.41;94849.97;5035607;28;20201;-68
2023/05/15 02:36:22;;;;;;;7.75;7.15;;;;;;;10.17;92.65;94852.66;5036508;28;20213;-69
2023/05/15 02:38:55;;;;;;;8.18;7.47;;;;;;;10.20;92.56;94854.66;5036780;28;20245;-69
2023/05/15 02:41:23;;;;;;;8.20;7.50;;;;;;;10.19;92.79;94861.34;5036659;28;20255;-69
2023/05/15 02:43:51;;;;;;;8.20;7.53;;;;;;;10.20;92.46;94867.66;5036340;28;20241;-69
2023/05/15 02:46:23;;;;;;;8.27;7.57;;;;;;;10.17;92.62;94866.44;5035361;28;20202;-69
2023/05/15 02:48:52;;;;;;;8.25;7.53;;;;;;;10.17;92.60;94855.41;5035044;28;20220;-69
2023/05/15 02:51:20;;;;;;;8.80;8.00;;;;;;;10.12;92.53;94841.88;5035160;28;20248;-69
2023/05/15 02:53:48;;;;;;;9.85;8.85;;;;;;;10.03;92.48;94841.25;5035362;28;20194;-69
2023/05/15 02:56:16;;;;;;;8.40;7.70;;;;;;;10.00;93.02;94842.75;5036201;28;20313;-69
2023/05/15 02:58:45;;;;;;;8.75;8.07;;;;;;;10.03;93.42;94836.53;5035548;28;20587;-69
2023/05/15 03:01:14;;;;;;;9.45;8.55;;;;;;;10.04;93.39;94840.91;5035712;28;20229;-68
2023/05/15 03:03:49;;;;;;;8.27;7.55;;;;;;;10.05;93.25;94853.50;5035409;28;20203;-68
2023/05/15 03:06:20;;;;;;;8.55;7.75;;;;;;;10.10;93.50;94847.75;5035629;28;20205;-68
2023/05/15 03:08:50;;;;;;;11.35;10.25;;;;;;;10.10;93.27;94853.25;5034997;28;20202;-68
2023/05/15 03:11:20;;;;;;;11.98;10.88;;;;;;;10.09;93.35;94865.44;5035613;28;20206;-68
2023/05/15 03:13:50;;;;;;;10.23;9.32;;;;;;;10.05;93.35;94864.53;5039712;28;20237;-69
2023/05/15 03:16:18;;;;;;;8.57;7.97;;;;;;;10.02;93.30;94853.41;5075057;28;20242;-69
2023/05/15 03:19:03;;;;;;;9.18;8.30;;;;;;;10.08;93.83;94860.28;5074812;28;20200;-69
2023/05/15 03:21:31;;;;;;;9.07;8.27;;;;;;;10.15;93.76;94863.22;5075201;28;20274;-68
2023/05/15 03:24:05;;;;;;;8.50;7.80;;;;;;;10.20;93.59;94856.63;5074738;28;20200;-69
2023/05/15 03:26:36;;;;;;;9.65;8.70;;;;;;;10.21;93.78;94859.03;5072670;28;20212;-68
2023/05/15 03:29:06;;;;;;;8.65;7.85;;;;;;;10.23;93.74;94866.94;5075191;28;20225;-68
2023/05/15 03:31:33;;;;;;;8.85;8.05;;;;;;;10.27;93.65;94857.63;5074470;28;20200;-68
2023/05/15 03:34:05;;;;;;;9.07;8.30;;;;;;;10.29;93.85;94852.56;5074776;28;20197;-68
2023/05/15 03:36:34;;;;;;;16.13;14.63;;;;;;;10.30;93.62;94850.63;5074444;28;20242;-68
2023/05/15 03:39:05;;;;;;;19.40;17.90;;;;;;;10.31;93.24;94849.44;5075525;28;20199;-68
2023/05/15 03:41:33;;;;;;;13.52;12.43;;;;;;;10.32;93.39;94845.56;5074992;28;20224;-68
2023/05/15 03:44:04;;;;;;;11.75;10.75;;;;;;;10.32;93.14;94840.84;5074949;28;20223;-68
2023/05/15 03:46:33;;;;;;;10.50;9.70;;;;;;;10.34;93.17;94844.03;5074569;28;20505;-68
2023/05/15 03:49:04;;;;;;;9.50;8.80;;;;;;;10.35;92.96;94851.16;5074587;28;20185;-68
2023/05/15 03:51:34;;;;;;;9.82;9.00;;;;;;;10.35;92.96;94859.44;5075482;28;20185;-68
2023/05/15 03:54:06;;;;;;;10.05;9.13;;;;;;;10.38;92.86;94866.16;5074653;28;20209;-68
2023/05/15 03:56:36;;;;;;;10.25;9.20;;;;;;;10.39;92.90;94853.22;5074322;28;20200;-68
2023/05/15 03:59:06;;;;;;;10.35;9.35;;;;;;;10.36;92.72;94852.75;5074268;28;20272;-68
2023/05/15 04:01:37;;;;;;;10.90;9.90;;;;;;;10.35;92.66;94858.63;5074974;28;20707;-68
2023/05/15 04:04:13;;;;;;;10.32;9.35;;;;;;;10.37;92.46;94861.81;5074576;28;20531;-68
2023/05/15 04:06:44;;;;;;;10.02;9.23;;;;;;;10.40;92.41;94865.81;5074813;28;20212;-67
2023/05/15 04:09:12;;;;;;;10.23;9.43;;;;;;;10.39;92.37;94859.50;5073805;28;20204;-67
2023/05/15 04:11:39;;;;;;;10.95;10.00;;;;;;;10.41;92.68;94864.66;5073843;28;20595;-67
2023/05/15 04:14:09;;;;;;;11.57;10.50;;;;;;;10.42;92.60;94869.84;5073609;28;20652;-67
2023/05/15 04:16:37;;;;;;;12.10;11.10;;;;;;;10.40;92.56;94874.91;5074970;28;20203;-68
2023/05/15 04:19:13;;;;;;;12.32;11.27;;;;;;;10.41;92.30;94882.00;5074329;28;20247;-66
2023/05/15 04:21:44;;;;;;;11.05;10.05;;;;;;;10.44;92.44;94877.75;5073913;28;20282;-66
2023/05/15 04:24:12;;;;;;;10.77;9.88;;;;;;;10.43;92.59;94873.38;5074407;28;20186;-65
2023/05/15 04:26:43;;;;;;;10.77;9.75;;;;;;;10.39;92.52;94869.75;5073438;28;20221;-65
2023/05/15 04:29:12;;;;;;;10.73;9.73;;;;;;;10.36;92.09;94871.25;5073720;28;20247;-66
2023/05/15 04:31:39;;;;;;;11.07;10.07;;;;;;;10.37;92.59;94859.06;5074748;28;20189;-66
2023/05/15 04:34:15;;;;;;;11.63;10.52;;;;;;;10.38;92.59;94849.63;5074160;28;20209;-68
2023/05/15 04:36:45;;;;;;;12.20;11.00;;;;;;;10.38;92.68;94846.88;5074360;28;20204;-69
2023/05/15 04:39:15;;;;;;;12.13;11.07;;;;;;;10.35;92.65;94842.88;5074453;28;20594;-69
2023/05/15 04:41:46;;;;;;;13.27;12.18;;;;;;;10.35;92.94;94831.06;5076107;28;20197;-66
2023/05/15 04:44:16;;;;;;;12.50;11.50;;;;;;;10.35;93.06;94822.78;5077348;28;20224;-65
2023/05/15 04:46:44;;;;;;;13.20;12.10;;;;;;;10.34;93.34;94845.97;5078102;28;20189;-66
2023/05/15 04:49:20;;;;;;;13.38;12.18;;;;;;;10.35;93.31;94864.16;5077732;28;20201;-70
2023/05/15 04:51:50;;;;;;;12.60;11.55;;;;;;;10.39;93.30;94862.28;5078098;28;20185;-69
2023/05/15 04:54:19;;;;;;;11.60;10.50;;;;;;;10.41;93.47;94856.38;5077703;28;20212;-70
2023/05/15 04:56:48;;;;;;;11.75;10.85;;;;;;;10.46;93.13;94858.91;5077299;28;20193;-71
2023/05/15 04:59:17;;;;;;;11.75;10.75;;;;;;;10.45;93.42;94851.75;5077268;28;20215;-70
2023/05/15 05:01:47;;;;;;;12.35;11.25;;;;;;;10.43;93.29;94843.84;5077436;28;20225;-70
2023/05/15 05:04:18;;;;;;;11.63;10.60;;;;;;;10.45;93.79;94835.22;5077958;28;20602;-71
2023/05/15 05:06:49;;;;;;;11.57;10.50;;;;;;;10.47;93.79;94830.94;5076976;28;20197;-71
2023/05/15 05:09:19;;;;;;;11.02;10.10;;;;;;;10.51;93.69;94848.38;5076868;28;20197;-70
2023/05/15 05:11:48;;;;;;;9.95;9.15;;;;;;;10.50;93.96;94838.50;5079658;28;20208;-69
2023/05/15 05:14:16;;;;;;;10.82;9.82;;;;;;;10.53;93.92;94843.31;5079353;28;20243;-70
2023/05/15 05:16:47;;;;;;;10.25;9.38;;;;;;;10.57;94.13;94835.94;5078403;28;20193;-70
2023/05/15 05:19:14;;;;;;;10.55;9.55;;;;;;;10.59;93.98;94830.84;5078388;28;20310;-70
2023/05/15 05:21:49;;;;;;;9.60;8.80;;;;;;;10.65;93.78;94833.34;5078208;28;20205;-69
2023/05/15 05:24:18;;;;;;;10.10;9.20;;;;;;;10.69;94.03;94846.03;5063456;28;20201;-69
2023/05/15 05:26:46;;;;;;;9.25;8.48;;;;;;;10.75;94.11;94847.38;5081453;28;20189;-69
2023/05/15 05:29:14;;;;;;;10.68;9.77;;;;;;;10.82;94.09;94849.47;5079568;28;20200;-70
2023/05/15 05:31:45;;;;;;;11.15;10.15;;;;;;;10.87;93.96;94840.94;5078223;28;20200;-69
2023/05/15 05:34:12;;;;;;;11.50;10.43;;;;;;;10.91;94.10;94836.28;5078934;28;20185;-71
2023/05/15 05:36:43;;;;;;;11.95;10.77;;;;;;;10.95;94.10;94837.16;5076724;28;20193;-70
2023/05/15 05:39:19;;;;;;;9.57;8.77;;;;;;;11.01;94.03;94835.72;5078893;28;20221;-70
2023/05/15 05:41:47;;;;;;;8.93;8.23;;;;;;;11.05;93.20;94836.59;5077292;28;20220;-70
2023/05/15 05:44:18;;;;;;;9.10;8.30;;;;;;;11.11;92.72;94828.00;5077143;28;20273;-71
2023/05/15 05:46:46;;;;;;;9.82;9.02;;;;;;;11.12;92.45;94829.63;5078890;28;20593;-70
2023/05/15 05:49:17;;;;;;;9.27;8.57;;;;;;;11.17;92.75;94829.34;5077676;28;20182;-70
2023/05/15 05:51:48;;;;;;;8.60;7.90;;;;;;;11.18;92.24;94844.72;5076362;28;20594;-68
2023/05/15 05:54:21;;;;;;;8.88;8.18;;;;;;;11.21;92.21;94836.53;5076667;28;20208;-69
2023/05/15 05:56:49;;;;;;;8.35;7.63;;;;;;;11.24;91.92;94835.00;5076247;28;20197;-69
2023/05/15 05:59:18;;;;;;;9.02;8.23;;;;;;;11.29;91.65;94845.75;5076964;28;20285;-74
2023/05/15 06:01:49;;;;;;;8.68;7.88;;;;;;;11.32;91.26;94839.50;5076358;28;20277;-73
2023/05/15 06:04:22;;;;;;;8.57;7.85;;;;;;;11.39;91.21;94842.41;5076015;28;20288;-73
2023/05/15 06:06:53;;;;;;;9.40;8.60;;;;;;;11.41;90.63;94840.09;5077060;28;20250;-74
2023/05/15 06:09:29;;;;;;;8.25;7.55;;;;;;;11.47;90.93;94837.84;5076619;28;20584;-71
2023/05/15 06:11:57;;;;;;;8.20;7.50;;;;;;;11.50;90.87;94829.63;5076073;28;20224;-70
2023/05/15 06:14:24;;;;;;;8.45;7.75;;;;;;;11.54;91.41;94824.16;5075353;28;20240;-72
2023/05/15 06:16:52;;;;;;;8.48;7.78;;;;;;;11.55;91.37;94820.25;5075893;28;20193;-71
2023/05/15 06:19:23;;;;;;;8.63;7.93;;;;;;;11.57;90.64;94826.19;5075569;28;20601;-70
2023/05/15 06:21:54;;;;;;;8.75;8.05;;;;;;;11.62;90.69;94825.09;5077676;28;20209;-69
2023/05/15 06:24:26;;;;;;;8.52;7.78;;;;;;;11.67;90.88;94833.09;5078991;28;20201;-69
2023/05/15 06:26:54;;;;;;;8.57;7.88;;;;;;;11.75;90.87;94837.59;5077998;28;20579;-69
2023/05/15 06:29:22;;;;;;;9.25;7.97;;;;;;;11.81;90.46;94831.41;5075905;28;20250;-69
2023/05/15 06:31:50;;;;;;;8.75;8.05;;;;;;;11.87;90.06;94833.88;5079049;28;20613;-71
2023/05/15 06:34:17;;;;;;;9.23;8.43;;;;;;;11.94;90.49;94834.81;5077124;28;20656;-70
2023/05/15 06:36:45;;;;;;;9.70;8.90;;;;;;;12.00;89.91;94832.56;5076281;28;20182;-70
2023/05/15 06:39:13;;;;;;;9.82;8.88;;;;;;;12.03;89.42;94829.06;5076099;28;20201;-69
2023/05/15 06:41:42;;;;;;;9.65;8.73;;;;;;;12.03;88.91;94851.97;5075678;28;20205;-69
2023/05/15 06:44:09;;;;;;;9.20;8.50;;;;;;;12.04;88.40;94844.47;5074848;28;20208;-70
2023/05/15 06:46:37;;;;;;;9.57;8.68;;;;;;;12.03;87.93;94837.34;5075025;28;20200;-69
2023/05/15 06:49:05;;;;;;;8.27;7.60;;;;;;;12.04;87.84;94850.00;5075209;28;20529;-69
2023/05/15 06:51:33;;;;;;;8.65;7.85;;;;;;;12.06;87.67;94839.38;5075089;28;20235;-69
2023/05/15 06:54:03;;;;;;;9.35;8.55;;;;;;;12.12;88.08;94851.72;5075099;28;20181;-69
2023/05/15 06:56:30;;;;;;;15.00;13.70;;;;;;;12.17;88.64;94845.91;5075386;28;20296;-69
2023/05/15 06:58:59;;;;;;;15.57;14.32;;;;;;;12.18;88.79;94855.00;5075591;28;20193;-70
2023/05/15 07:01:29;;;;;;;15.73;14.32;;;;;;;12.17;88.72;94847.88;5075484;28;20236;-70
2023/05/15 07:03:55;;;;;;;15.30;13.88;;;;;;;12.19;88.51;94834.47;5075864;28;20216;-69
2023/05/15 07:06:24;;;;;;;12.70;11.60;;;;;;;12.25;88.84;94831.03;5074688;28;20338;-71
2023/05/15 07:08:52;;;;;;;13.57;12.27;;;;;;;12.34;88.34;94843.78;5075716;28;20195;-70
2023/05/15 07:11:20;;;;;;;13.75;12.35;;;;;;;12.39;89.28;94836.00;5074843;28;20201;-69
2023/05/15 07:13:48;;;;;;;10.98;9.98;;;;;;;12.47;89.04;94836.91;5074597;28;20193;-69
2023/05/15 07:16:22;;;;;;;8.32;7.53;;;;;;;12.52;88.11;94834.63;5074692;28;20621;-69
2023/05/15 07:18:50;;;;;;;9.80;8.90;;;;;;;12.58;87.49;94837.09;5074245;28;20629;-69
2023/05/15 07:21:18;;;;;;;10.75;9.75;;;;;;;12.62;87.40;94843.47;5074587;28;20213;-70
2023/05/15 07:23:46;;;;;;;12.13;11.02;;;;;;;12.62;87.11;94844.25;5075040;28;20538;-69
2023/05/15 07:26:15;;;;;;;11.13;10.13;;;;;;;12.59;85.98;94853.31;5074260;28;20625;-70
2023/05/15 07:28:43;;;;;;;9.18;8.15;;;;;;;12.56;86.56;94845.75;5074561;28;20197;-70
2023/05/15 07:31:11;;;;;;;10.30;9.40;;;;;;;12.50;86.25;94841.72;5074212;28;20193;-71
2023/05/15 07:33:40;;;;;;;10.35;9.25;;;;;;;12.41;86.10;94832.84;5074476;28;20193;-71
2023/05/15 07:36:09;;;;;;;11.27;9.60;;;;;;;12.50;86.64;94830.66;5075079;28;20197;-73
2023/05/15 07:38:37;;;;;;;9.52;8.65;;;;;;;12.59;86.60;94838.66;5074217;28;20201;-73
2023/05/15 07:41:05;;;;;;;11.60;9.88;;;;;;;12.61;86.03;94839.91;5075128;28;20203;-74
2023/05/15 07:43:33;;;;;;;10.95;9.95;;;;;;;12.65;86.33;94834.44;5074147;28;20196;-74
2023/05/15 07:46:03;;;;;;;11.93;10.80;;;;;;;12.69;86.55;94832.50;5074658;28;20279;-70
2023/05/15 07:48:33;;;;;;;10.85;9.75;;;;;;;12.71;86.10;94835.72;5074105;28;20292;-70
2023/05/15 07:51:06;;;;;;;9.98;9.07;;;;;;;12.73;85.19;94841.66;5075026;28;20197;-72
2023/05/15 07:53:34;;;;;;;9.82;8.93;;;;;;;12.74;85.27;94844.06;5074330;28;20208;-70
2023/05/15 07:56:02;;;;;;;10.00;9.00;;;;;;;12.77;85.31;94842.50;5074775;28;20189;-72
2023/05/15 07:58:34;;;;;;;10.55;8.57;;;;;;;12.87;84.34;94844.66;5074329;28;20193;-69
2023/05/15 08:01:02;;;;;;;9.18;8.32;;;;;;;12.98;83.85;94859.44;5074427;28;20292;-71
2023/05/15 08:03:31;;;;;;;10.00;8.65;;;;;;;13.13;82.81;94867.94;5073816;28;20193;-71
2023/05/15 08:05:58;;;;;;;11.88;9.20;;;;;;;13.13;82.71;94863.19;5074176;28;20197;-72
2023/05/15 08:08:27;;;;;;;10.45;9.65;;;;;;;13.08;83.46;94862.75;5074025;28;20189;-70
2023/05/15 08:10:55;;;;;;;11.05;10.05;;;;;;;13.02;83.75;94860.28;5073853;28;20185;-69
2023/05/15 08:13:23;;;;;;;11.07;10.05;;;;;;;12.96;83.71;94859.03;5075064;28;20185;-69
2023/05/15 08:15:51;;;;;;;11.52;10.43;;;;;;;12.83;84.10;94854.88;5074353;28;20346;-69
2023/05/15 08:18:20;;;;;;;11.48;10.20;;;;;;;12.74;84.30;94854.31;5079659;28;20613;-72
2023/05/15 08:20:48;;;;;;;12.15;10.93;;;;;;;12.70;84.59;94854.25;5079946;28;20201;-71
2023/05/15 08:23:15;;;;;;;12.50;11.13;;;;;;;12.70;85.51;94857.03;5079248;28;20212;-70
2023/05/15 08:25:45;;;;;;;12.85;11.48;;;;;;;12.72;85.36;94854.72;5078743;28;20211;-70
2023/05/15 08:28:12;;;;;;;13.52;12.20;;;;;;;12.73;86.47;94858.25;5078510;28;20223;-73
2023/05/15 08:30:39;;;;;;;13.18;11.93;;;;;;;12.70;86.15;94851.50;5077790;28;20201;-73
2023/05/15 08:33:07;;;;;;;13.82;12.43;;;;;;;12.67;86.74;94846.72;5079042;28;20192;-72
2023/05/15 08:35:35;;;;;;;13.80;12.50;;;;;;;12.68;86.84;94850.28;5077666;28;20239;-71
2023/05/15 08:38:03;;;;;;;14.90;11.48;;;;;;;12.66;86.34;94845.13;5077353;28;20209;-75
2023/05/15 08:40:30;;;;;;;12.70;11.50;;;;;;;12.62;86.33;94847.03;5077533;28;20219;-74
2023/05/15 08:43:03;;;;;;;13.45;12.25;;;;;;;12.56;86.04;94844.94;5077487;28;20676;-74
2023/05/15 08:45:30;;;;;;;13.18;11.80;;;;;;;12.58;86.29;94835.13;5077345;28;20207;-74
2023/05/15 08:47:58;;;;;;;13.85;12.55;;;;;;;12.61;85.55;94852.94;5077831;28;20275;-73
2023/05/15 08:50:26;;;;;;;12.93;11.73;;;;;;;12.64;84.78;94847.47;5077909;28;20205;-75
2023/05/15 08:52:57;;;;;;;12.65;11.05;;;;;;;12.68;84.95;94847.53;5078396;28;20520;-75
2023/05/15 08:55:25;;;;;;;11.90;10.80;;;;;;;12.64;83.94;94846.69;5078038;28;20197;-75
2023/05/15 08:57:53;;;;;;;13.10;11.80;;;;;;;12.66;84.63;94831.28;5077249;28;20649;-71
2023/05/15 09:00:24;;;;;;;13.05;11.95;;;;;;;12.67;84.62;94830.13;5077347;28;20204;-69
2023/05/15 09:02:54;;;;;;;12.93;11.68;;;;;;;12.66;84.68;94816.66;5077915;28;20292;-69
2023/05/15 09:05:22;;;;;;;13.43;12.23;;;;;;;12.72;85.57;94824.25;5077430;28;20204;-72
2023/05/15 09:07:51;;;;;;;13.82;12.55;;;;;;;12.76;85.60;94827.88;5077794;28;20205;-73
2023/05/15 09:10:19;;;;;;;12.20;10.95;;;;;;;12.83;85.59;94827.19;5077448;28;20262;-73
2023/05/15 09:12:47;;;;;;;12.25;11.05;;;;;;;12.88;85.28;94821.31;5077539;28;20273;-71
2023/05/15 09:15:21;;;;;;;11.85;10.65;;;;;;;12.93;84.32;94818.25;5076963;28;20236;-70
2023/05/15 09:17:50;;;;;;;12.25;11.15;;;;;;;12.97;84.28;94818.31;5076798;28;20201;-71
2023/05/15 09:20:29;;;;;;;11.52;10.43;;;;;;;13.02;84.10;94812.44;5077263;28;20197;-70
2023/05/15 09:22:59;;;;;;;10.75;9.65;;;;;;;13.10;84.51;94816.88;5077866;28;20213;-70
2023/05/15 09:25:36;;;;;;;12.23;11.05;;;;;;;13.17;84.09;94814.22;5076688;28;20628;-71
2023/05/15 09:28:05;;;;;;;11.98;10.77;;;;;;;13.17;84.33;94802.34;5077311;28;20628;-71
2023/05/15 09:30:33;;;;;;;12.43;11.23;;;;;;;13.14;83.28;94801.09;5077918;28;20587;-70
2023/05/15 09:33:03;;;;;;;11.27;10.27;;;;;;;13.10;83.59;94796.69;5077687;28;20189;-69
2023/05/15 09:35:37;;;;;;;12.95;11.65;;;;;;;13.00;82.48;94800.94;5075546;28;20418;-67
2023/05/15 09:38:09;;;;;;;13.18;10.80;;;;;;;13.05;83.87;94789.53;5076304;28;20189;-67
2023/05/15 09:40:38;;;;;;;13.25;11.77;;;;;;;13.08;83.78;94779.69;5076352;28;20197;-67
2023/05/15 09:43:06;;;;;;;12.05;10.85;;;;;;;13.04;83.29;94779.63;5076417;28;20224;-67
2023/05/15 09:45:35;;;;;;;12.70;11.50;;;;;;;13.10;83.68;94788.41;5076390;28;20203;-66
2023/05/15 09:48:10;;;;;;;13.13;11.38;;;;;;;13.09;83.63;94779.28;5075911;28;20205;-66
2023/05/15 09:50:38;;;;;;;11.45;10.45;;;;;;;13.02;81.70;94779.19;5075361;28;20269;-66
2023/05/15 09:53:06;;;;;;;13.18;11.38;;;;;;;13.01;82.12;94780.38;5076160;28;20185;-66
2023/05/15 09:55:46;;;;;;;12.48;11.23;;;;;;;13.00;82.20;94773.25;5075854;28;20197;-66
2023/05/15 09:58:15;;;;;;;13.07;11.65;;;;;;;13.04;82.81;94785.19;5075849;28;20262;-67
2023/05/15 10:00:48;;;;;;;12.43;11.13;;;;;;;13.13;83.13;94771.81;5076890;28;20205;-66
2023/05/15 10:03:21;;;;;;;11.57;10.43;;;;;;;13.24;82.96;94770.03;5076461;28;20303;-71
2023/05/15 10:05:50;;;;;;;12.73;11.07;;;;;;;13.30;82.60;94776.03;5076257;28;20291;-71
2023/05/15 10:08:29;;;;;;;11.98;10.85;;;;;;;13.34;81.96;94767.78;5076892;28;20598;-71
2023/05/15 10:11:02;;;;;;;11.40;10.20;;;;;;;13.36;81.46;94769.00;5076872;28;20181;-70
2023/05/15 10:13:32;;;;;;;11.40;10.40;;;;;;;13.40;81.57;94767.06;5076141;28;20197;-70
2023/05/15 10:16:05;;;;;;;11.38;10.27;;;;;;;13.48;81.42;94776.25;5075264;28;20286;-70
2023/05/15 10:18:39;;;;;;;11.38;10.23;;;;;;;13.52;80.42;94785.38;5075600;28;20201;-70
2023/05/15 10:21:10;;;;;;;10.50;9.60;;;;;;;13.54;79.97;94790.53;5076183;28;20200;-71
2023/05/15 10:23:40;;;;;;;12.57;10.70;;;;;;;13.59;80.82;94795.75;5059478;28;20220;-69
2023/05/15 10:26:13;;;;;;;11.10;10.10;;;;;;;13.65;80.67;94783.13;5076587;28;20185;-70
2023/05/15 10:28:44;;;;;;;11.48;10.30;;;;;;;13.69;80.80;94800.63;5076372;28;20199;-70
2023/05/15 10:31:12;;;;;;;11.13;9.75;;;;;;;13.73;80.50;94798.69;5075604;28;20228;-70
2023/05/15 10:33:46;;;;;;;11.18;10.02;;;;;;;13.75;81.00;94812.94;5075546;28;20197;-70
2023/05/15 10:36:17;;;;;;;12.00;10.48;;;;;;;13.77;80.42;94805.06;5075494;28;20200;-70
2023/05/15 10:38:46;;;;;;;12.43;11.13;;;;;;;13.77;80.19;94813.38;5075814;28;20204;-69
2023/05/15 10:41:20;;;;;;;12.38;11.27;;;;;;;13.79;80.21;94815.75;5075888;28;20694;-70
2023/05/15 10:43:47;;;;;;;11.00;10.00;;;;;;;13.82;79.99;94807.47;5074979;28;20242;-70
2023/05/15 10:46:15;;;;;;;11.50;10.30;;;;;;;13.87;79.51;94809.09;5075586;28;20197;-70
2023/05/15 10:48:50;;;;;;;11.40;10.40;;;;;;;13.88;79.73;94799.63;5075258;28;20255;-70
2023/05/15 10:51:26;;;;;;;12.10;10.90;;;;;;;13.90;80.52;94806.38;5075695;28;20291;-69
2023/05/15 10:53:55;;;;;;;10.10;9.10;;;;;;;13.90;80.21;94800.81;5076153;28;20242;-70
2023/05/15 10:56:27;;;;;;;11.38;9.93;;;;;;;13.87;80.32;94798.84;5072522;28;20201;-73
2023/05/15 10:58:55;;;;;;;11.18;10.13;;;;;;;13.89;80.70;94804.78;5074548;28;20204;-70
2023/05/15 11:01:30;;;;;;;12.15;10.65;;;;;;;13.91;80.52;94787.78;5075014;28;20192;-69
2023/05/15 11:04:15;;;;;;;12.02;10.80;;;;;;;13.91;80.08;94785.81;5074868;28;20231;-70
2023/05/15 11:06:45;;;;;;;11.07;9.98;;;;;;;13.90;79.96;94778.66;5074572;28;20188;-70
2023/05/15 11:09:45;;;;;;;11.63;10.52;;;;;;;13.91;79.80;94785.81;5075109;28;20196;-71
2023/05/15 11:12:16;;;;;;;10.90;9.80;;;;;;;13.95;79.68;94785.84;5075293;28;20193;-71
2023/05/15 11:15:21;;;;;;;10.95;9.85;;;;;;;13.98;80.73;94785.09;5074529;28;20239;-71
2023/05/15 11:18:08;;;;;;;10.38;9.48;;;;;;;14.03;80.02;94772.84;5074615;28;20196;-71
2023/05/15 11:21:15;;;;;;;11.20;9.82;;;;;;;14.03;80.20;94790.28;5058607;28;20204;-69
2023/05/15 11:23:41;;;;;;;11.02;9.93;;;;;;;14.10;79.96;94784.00;5074670;28;20313;-68
2023/05/15 11:26:17;;;;;;;11.55;10.43;;;;;;;14.12;79.36;94771.31;5074347;28;20209;-69
2023/05/15 11:28:47;;;;;;;11.15;9.82;;;;;;;14.09;77.98;94785.97;5075147;28;20188;-69
2023/05/15 11:31:17;;;;;;;10.88;9.77;;;;;;;14.14;79.76;94793.16;5076174;28;20580;-69
2023/05/15 11:33:50;;;;;;;11.82;10.05;;;;;;;14.22;80.09;94772.59;5074396;28;20284;-69
2023/05/15 11:36:25;;;;;;;10.65;9.48;;;;;;;14.26;78.51;94772.63;5074713;28;20207;-72
2023/05/15 11:38:53;;;;;;;12.32;11.02;;;;;;;14.28;78.62;94761.97;5074316;28;20286;-72
2023/05/15 11:41:26;;;;;;;11.88;10.43;;;;;;;14.30;77.73;94768.69;5074968;28;20227;-72